sensor_id;sensor_type;location;lat;lon;timestamp;temperature;humidity
51719;DHT22;37795;53.236;5.704;2023-08-01T00:01:31;16.10;81.70
51719;DHT22;37795;53.236;5.704;2023-08-01T00:03:57;16.10;81.90
51719;DHT22;37795;53.236;5.704;2023-08-01T00:06:23;16.10;81.60
51719;DHT22;37795;53.236;5.704;2023-08-01T00:08:50;16.10;81.80
51719;DHT22;37795;53.236;5.704;2023-08-01T00:11:16;16.10;81.70
51719;DHT22;37795;53.236;5.704;2023-08-01T00:13:42;16.10;81.70
51719;DHT22;37795;53.236;5.704;2023-08-01T00:16:09;16.10;81.60
51719;DHT22;37795;53.236;5.704;2023-08-01T00:18:35;16.20;81.50
51719;DHT22;37795;53.236;5.704;2023-08-01T00:21:01;16.10;81.70
51719;DHT22;37795;53.236;5.704;2023-08-01T00:23:27;16.10;81.60
51719;DHT22;37795;53.236;5.704;2023-08-01T00:25:53;16.10;81.70
51719;DHT22;37795;53.236;5.704;2023-08-01T00:28:19;16.00;81.70
51719;DHT22;37795;53.236;5.704;2023-08-01T00:30:44;16.00;81.40
51719;DHT22;37795;53.236;5.704;2023-08-01T00:33:10;16.00;82.00
51719;DHT22;37795;53.236;5.704;2023-08-01T00:35:36;15.90;82.00
51719;DHT22;37795;53.236;5.704;2023-08-01T00:38:01;15.80;82.10
51719;DHT22;37795;53.236;5.704;2023-08-01T00:40:34;15.80;81.90
51719;DHT22;37795;53.236;5.704;2023-08-01T00:43:00;15.80;82.10
51719;DHT22;37795;53.236;5.704;2023-08-01T00:45:30;15.80;82.10
51719;DHT22;37795;53.236;5.704;2023-08-01T00:47:56;15.80;82.10
51719;DHT22;37795;53.236;5.704;2023-08-01T00:50:22;15.70;82.10
51719;DHT22;37795;53.236;5.704;2023-08-01T00:52:52;15.70;82.20
51719;DHT22;37795;53.236;5.704;2023-08-01T00:55:18;15.70;82.20
51719;DHT22;37795;53.236;5.704;2023-08-01T00:57:44;15.70;82.20
51719;DHT22;37795;53.236;5.704;2023-08-01T01:00:10;15.60;82.20
51719;DHT22;37795;53.236;5.704;2023-08-01T01:02:36;15.70;82.20
51719;DHT22;37795;53.236;5.704;2023-08-01T01:05:03;15.70;82.50
51719;DHT22;37795;53.236;5.704;2023-08-01T01:07:29;15.70;82.60
51719;DHT22;37795;53.236;5.704;2023-08-01T01:09:56;15.70;82.70
51719;DHT22;37795;53.236;5.704;2023-08-01T01:12:21;15.70;82.50
51719;DHT22;37795;53.236;5.704;2023-08-01T01:14:47;15.70;82.60
51719;DHT22;37795;53.236;5.704;2023-08-01T01:17:13;15.70;82.70
51719;DHT22;37795;53.236;5.704;2023-08-01T01:19:39;15.80;82.60
51719;DHT22;37795;53.236;5.704;2023-08-01T01:22:06;15.70;82.50
51719;DHT22;37795;53.236;5.704;2023-08-01T01:24:34;15.70;82.10
51719;DHT22;37795;53.236;5.704;2023-08-01T01:27:01;15.80;82.40
51719;DHT22;37795;53.236;5.704;2023-08-01T01:29:29;15.80;82.60
51719;DHT22;37795;53.236;5.704;2023-08-01T01:31:56;15.80;82.50
51719;DHT22;37795;53.236;5.704;2023-08-01T01:34:22;15.80;82.50
51719;DHT22;37795;53.236;5.704;2023-08-01T01:36:48;15.80;82.60
51719;DHT22;37795;53.236;5.704;2023-08-01T01:39:14;15.80;82.40
51719;DHT22;37795;53.236;5.704;2023-08-01T01:41:39;15.80;82.40
51719;DHT22;37795;53.236;5.704;2023-08-01T01:44:05;15.90;82.40
51719;DHT22;37795;53.236;5.704;2023-08-01T01:46:31;15.90;82.30
51719;DHT22;37795;53.236;5.704;2023-08-01T01:48:57;15.90;82.50
51719;DHT22;37795;53.236;5.704;2023-08-01T01:51:25;15.90;82.50
51719;DHT22;37795;53.236;5.704;2023-08-01T01:53:51;16.00;82.20
51719;DHT22;37795;53.236;5.704;2023-08-01T01:56:17;16.00;82.00
51719;DHT22;37795;53.236;5.704;2023-08-01T01:58:43;16.00;82.30
51719;DHT22;37795;53.236;5.704;2023-08-01T02:01:08;16.00;81.90
51719;DHT22;37795;53.236;5.704;2023-08-01T02:03:34;16.00;81.90
51719;DHT22;37795;53.236;5.704;2023-08-01T02:06:01;15.80;82.80
51719;DHT22;37795;53.236;5.704;2023-08-01T02:08:29;15.70;84.20
51719;DHT22;37795;53.236;5.704;2023-08-01T02:10:55;15.60;85.10
51719;DHT22;37795;53.236;5.704;2023-08-01T02:13:27;15.50;85.50
51719;DHT22;37795;53.236;5.704;2023-08-01T02:15:53;15.50;86.30
51719;DHT22;37795;53.236;5.704;2023-08-01T02:18:19;15.40;86.30
51719;DHT22;37795;53.236;5.704;2023-08-01T02:20:45;15.40;86.40
51719;DHT22;37795;53.236;5.704;2023-08-01T02:23:11;15.40;86.30
51719;DHT22;37795;53.236;5.704;2023-08-01T02:25:40;15.30;86.70
51719;DHT22;37795;53.236;5.704;2023-08-01T02:28:06;15.30;86.90
51719;DHT22;37795;53.236;5.704;2023-08-01T02:30:33;15.30;86.80
51719;DHT22;37795;53.236;5.704;2023-08-01T02:32:59;15.30;86.70
51719;DHT22;37795;53.236;5.704;2023-08-01T02:35:24;15.30;86.90
51719;DHT22;37795;53.236;5.704;2023-08-01T02:37:50;15.30;86.60
51719;DHT22;37795;53.236;5.704;2023-08-01T02:40:16;15.40;86.50
51719;DHT22;37795;53.236;5.704;2023-08-01T02:42:41;15.30;85.90
51719;DHT22;37795;53.236;5.704;2023-08-01T02:45:07;15.30;85.50
51719;DHT22;37795;53.236;5.704;2023-08-01T02:47:33;15.30;85.40
51719;DHT22;37795;53.236;5.704;2023-08-01T02:49:59;15.30;84.90
51719;DHT22;37795;53.236;5.704;2023-08-01T02:52:24;15.30;84.70
51719;DHT22;37795;53.236;5.704;2023-08-01T02:54:50;15.30;84.40
51719;DHT22;37795;53.236;5.704;2023-08-01T02:57:16;15.30;84.50
51719;DHT22;37795;53.236;5.704;2023-08-01T02:59:41;15.30;84.30
51719;DHT22;37795;53.236;5.704;2023-08-01T03:02:07;15.20;84.60
51719;DHT22;37795;53.236;5.704;2023-08-01T03:04:33;15.20;84.70
51719;DHT22;37795;53.236;5.704;2023-08-01T03:06:58;15.30;84.80
51719;DHT22;37795;53.236;5.704;2023-08-01T03:09:24;15.20;84.80
51719;DHT22;37795;53.236;5.704;2023-08-01T03:11:50;15.20;84.90
51719;DHT22;37795;53.236;5.704;2023-08-01T03:14:15;15.20;84.70
51719;DHT22;37795;53.236;5.704;2023-08-01T03:16:42;15.20;85.20
51719;DHT22;37795;53.236;5.704;2023-08-01T03:19:08;15.20;85.20
51719;DHT22;37795;53.236;5.704;2023-08-01T03:21:34;15.20;85.40
51719;DHT22;37795;53.236;5.704;2023-08-01T03:24:01;15.10;85.10
51719;DHT22;37795;53.236;5.704;2023-08-01T03:26:27;15.10;85.10
51719;DHT22;37795;53.236;5.704;2023-08-01T03:28:56;15.10;85.30
51719;DHT22;37795;53.236;5.704;2023-08-01T03:31:22;15.10;85.20
51719;DHT22;37795;53.236;5.704;2023-08-01T03:33:48;15.10;85.40
51719;DHT22;37795;53.236;5.704;2023-08-01T03:36:13;15.10;85.60
51719;DHT22;37795;53.236;5.704;2023-08-01T03:38:40;15.20;85.40
51719;DHT22;37795;53.236;5.704;2023-08-01T03:41:05;15.10;85.30
51719;DHT22;37795;53.236;5.704;2023-08-01T03:43:31;15.10;85.70
51719;DHT22;37795;53.236;5.704;2023-08-01T03:45:57;15.20;85.60
51719;DHT22;37795;53.236;5.704;2023-08-01T03:48:23;15.20;85.50
51719;DHT22;37795;53.236;5.704;2023-08-01T03:50:48;15.20;85.70
51719;DHT22;37795;53.236;5.704;2023-08-01T03:53:14;15.20;85.80
51719;DHT22;37795;53.236;5.704;2023-08-01T03:55:39;15.20;85.90
51719;DHT22;37795;53.236;5.704;2023-08-01T03:58:05;15.20;86.00
51719;DHT22;37795;53.236;5.704;2023-08-01T04:00:31;15.20;85.70
51719;DHT22;37795;53.236;5.704;2023-08-01T04:03:00;15.20;86.00
51719;DHT22;37795;53.236;5.704;2023-08-01T04:05:27;15.20;85.90
51719;DHT22;37795;53.236;5.704;2023-08-01T04:07:53;15.30;85.90
51719;DHT22;37795;53.236;5.704;2023-08-01T04:10:22;15.30;86.00
51719;DHT22;37795;53.236;5.704;2023-08-01T04:12:48;15.30;86.10
51719;DHT22;37795;53.236;5.704;2023-08-01T04:15:14;15.30;86.20
51719;DHT22;37795;53.236;5.704;2023-08-01T04:17:39;15.30;86.30
51719;DHT22;37795;53.236;5.704;2023-08-01T04:20:06;15.30;86.50
51719;DHT22;37795;53.236;5.704;2023-08-01T04:22:31;15.30;86.70
51719;DHT22;37795;53.236;5.704;2023-08-01T04:24:57;15.30;86.70
51719;DHT22;37795;53.236;5.704;2023-08-01T04:27:23;15.30;86.70
51719;DHT22;37795;53.236;5.704;2023-08-01T04:29:49;15.30;86.70
51719;DHT22;37795;53.236;5.704;2023-08-01T04:32:14;15.30;86.30
51719;DHT22;37795;53.236;5.704;2023-08-01T04:34:43;15.30;86.20
51719;DHT22;37795;53.236;5.704;2023-08-01T04:37:09;15.30;85.90
51719;DHT22;37795;53.236;5.704;2023-08-01T04:39:36;15.30;85.50
51719;DHT22;37795;53.236;5.704;2023-08-01T04:42:02;15.30;85.30
51719;DHT22;37795;53.236;5.704;2023-08-01T04:44:27;15.30;85.40
51719;DHT22;37795;53.236;5.704;2023-08-01T04:46:54;15.30;85.50
51719;DHT22;37795;53.236;5.704;2023-08-01T04:49:20;15.40;85.50
51719;DHT22;37795;53.236;5.704;2023-08-01T04:51:45;15.40;85.20
51719;DHT22;37795;53.236;5.704;2023-08-01T04:54:11;15.40;85.60
51719;DHT22;37795;53.236;5.704;2023-08-01T04:56:37;15.40;85.80
51719;DHT22;37795;53.236;5.704;2023-08-01T04:59:02;15.40;86.20
51719;DHT22;37795;53.236;5.704;2023-08-01T05:01:28;15.40;86.10
51719;DHT22;37795;53.236;5.704;2023-08-01T05:03:54;15.40;86.00
51719;DHT22;37795;53.236;5.704;2023-08-01T05:06:19;15.30;85.20
51719;DHT22;37795;53.236;5.704;2023-08-01T05:08:45;15.20;85.10
51719;DHT22;37795;53.236;5.704;2023-08-01T05:11:11;15.20;84.80
51719;DHT22;37795;53.236;5.704;2023-08-01T05:13:36;15.10;84.90
51719;DHT22;37795;53.236;5.704;2023-08-01T05:16:03;15.10;85.00
51719;DHT22;37795;53.236;5.704;2023-08-01T05:18:28;15.10;85.10
51719;DHT22;37795;53.236;5.704;2023-08-01T05:20:54;15.00;85.10
51719;DHT22;37795;53.236;5.704;2023-08-01T05:23:20;15.00;85.30
51719;DHT22;37795;53.236;5.704;2023-08-01T05:25:46;15.00;85.30
51719;DHT22;37795;53.236;5.704;2023-08-01T05:28:11;14.90;85.50
51719;DHT22;37795;53.236;5.704;2023-08-01T05:30:37;15.00;85.70
51719;DHT22;37795;53.236;5.704;2023-08-01T05:33:03;15.00;85.90
51719;DHT22;37795;53.236;5.704;2023-08-01T05:35:29;15.00;86.00
51719;DHT22;37795;53.236;5.704;2023-08-01T05:37:54;15.00;86.00
51719;DHT22;37795;53.236;5.704;2023-08-01T05:40:20;15.00;86.10
51719;DHT22;37795;53.236;5.704;2023-08-01T05:42:46;15.00;85.90
51719;DHT22;37795;53.236;5.704;2023-08-01T05:45:11;15.00;86.20
51719;DHT22;37795;53.236;5.704;2023-08-01T05:47:37;15.10;86.00
51719;DHT22;37795;53.236;5.704;2023-08-01T05:50:06;15.10;86.20
51719;DHT22;37795;53.236;5.704;2023-08-01T05:52:31;15.20;86.20
51719;DHT22;37795;53.236;5.704;2023-08-01T05:54:57;15.30;86.20
51719;DHT22;37795;53.236;5.704;2023-08-01T05:57:23;15.40;86.20
51719;DHT22;37795;53.236;5.704;2023-08-01T05:59:49;15.40;85.80
51719;DHT22;37795;53.236;5.704;2023-08-01T06:02:14;15.50;85.60
51719;DHT22;37795;53.236;5.704;2023-08-01T06:04:40;15.50;85.80
51719;DHT22;37795;53.236;5.704;2023-08-01T06:07:06;15.50;85.60
51719;DHT22;37795;53.236;5.704;2023-08-01T06:09:32;15.50;85.20
51719;DHT22;37795;53.236;5.704;2023-08-01T06:11:57;15.50;85.60
51719;DHT22;37795;53.236;5.704;2023-08-01T06:14:23;15.50;85.60
51719;DHT22;37795;53.236;5.704;2023-08-01T06:16:49;15.50;85.80
51719;DHT22;37795;53.236;5.704;2023-08-01T06:19:15;15.50;85.80
51719;DHT22;37795;53.236;5.704;2023-08-01T06:21:40;15.50;85.70
51719;DHT22;37795;53.236;5.704;2023-08-01T06:24:06;15.40;85.90
51719;DHT22;37795;53.236;5.704;2023-08-01T06:26:34;15.40;86.10
51719;DHT22;37795;53.236;5.704;2023-08-01T06:28:59;15.30;85.80
51719;DHT22;37795;53.236;5.704;2023-08-01T06:31:26;15.20;85.80
51719;DHT22;37795;53.236;5.704;2023-08-01T06:33:52;15.20;86.10
51719;DHT22;37795;53.236;5.704;2023-08-01T06:36:18;15.10;86.40
51719;DHT22;37795;53.236;5.704;2023-08-01T06:38:43;15.10;86.30
51719;DHT22;37795;53.236;5.704;2023-08-01T06:41:09;15.20;86.50
51719;DHT22;37795;53.236;5.704;2023-08-01T06:43:35;15.20;86.80
51719;DHT22;37795;53.236;5.704;2023-08-01T06:46:04;15.20;86.60
51719;DHT22;37795;53.236;5.704;2023-08-01T06:55:00;15.80;86.40
51719;DHT22;37795;53.236;5.704;2023-08-01T06:57:26;15.50;87.30
51719;DHT22;37795;53.236;5.704;2023-08-01T06:59:51;15.60;87.20
51719;DHT22;37795;53.236;5.704;2023-08-01T07:02:17;15.70;86.80
51719;DHT22;37795;53.236;5.704;2023-08-01T07:04:43;15.70;86.50
51719;DHT22;37795;53.236;5.704;2023-08-01T07:07:09;15.90;86.30
51719;DHT22;37795;53.236;5.704;2023-08-01T07:09:34;15.90;85.80
51719;DHT22;37795;53.236;5.704;2023-08-01T07:12:00;16.00;85.90
51719;DHT22;37795;53.236;5.704;2023-08-01T07:14:26;16.10;85.70
51719;DHT22;37795;53.236;5.704;2023-08-01T07:16:52;16.20;85.70
51719;DHT22;37795;53.236;5.704;2023-08-01T07:19:17;16.20;85.70
51719;DHT22;37795;53.236;5.704;2023-08-01T07:21:43;15.90;85.10
51719;DHT22;37795;53.236;5.704;2023-08-01T07:24:11;15.70;85.60
51719;DHT22;37795;53.236;5.704;2023-08-01T07:26:39;15.60;85.90
51719;DHT22;37795;53.236;5.704;2023-08-01T07:29:04;15.40;86.30
51719;DHT22;37795;53.236;5.704;2023-08-01T07:31:30;15.40;86.50
51719;DHT22;37795;53.236;5.704;2023-08-01T07:33:56;15.30;87.00
51719;DHT22;37795;53.236;5.704;2023-08-01T07:36:22;15.30;87.40
51719;DHT22;37795;53.236;5.704;2023-08-01T07:38:48;15.20;87.30
51719;DHT22;37795;53.236;5.704;2023-08-01T07:41:13;15.20;87.00
51719;DHT22;37795;53.236;5.704;2023-08-01T07:43:39;15.20;86.60
51719;DHT22;37795;53.236;5.704;2023-08-01T07:46:04;15.20;86.60
51719;DHT22;37795;53.236;5.704;2023-08-01T07:48:30;15.30;86.80
51719;DHT22;37795;53.236;5.704;2023-08-01T07:50:56;15.30;86.60
51719;DHT22;37795;53.236;5.704;2023-08-01T07:53:22;15.30;86.60
51719;DHT22;37795;53.236;5.704;2023-08-01T07:55:47;15.40;86.70
51719;DHT22;37795;53.236;5.704;2023-08-01T07:58:13;15.50;86.80
51719;DHT22;37795;53.236;5.704;2023-08-01T08:00:39;15.60;86.70
51719;DHT22;37795;53.236;5.704;2023-08-01T08:03:05;15.80;87.00
51719;DHT22;37795;53.236;5.704;2023-08-01T08:05:31;15.80;86.30
51719;DHT22;37795;53.236;5.704;2023-08-01T08:07:57;15.80;86.20
51719;DHT22;37795;53.236;5.704;2023-08-01T08:10:22;15.60;84.60
51719;DHT22;37795;53.236;5.704;2023-08-01T08:12:48;15.60;85.00
51719;DHT22;37795;53.236;5.704;2023-08-01T08:15:14;15.60;85.30
51719;DHT22;37795;53.236;5.704;2023-08-01T08:17:41;15.70;85.50
51719;DHT22;37795;53.236;5.704;2023-08-01T08:20:07;15.60;85.60
51719;DHT22;37795;53.236;5.704;2023-08-01T08:22:33;15.60;85.30
51719;DHT22;37795;53.236;5.704;2023-08-01T08:24:58;15.60;85.20
51719;DHT22;37795;53.236;5.704;2023-08-01T08:27:24;15.70;85.30
51719;DHT22;37795;53.236;5.704;2023-08-01T08:29:50;15.90;85.40
51719;DHT22;37795;53.236;5.704;2023-08-01T08:32:16;16.00;84.80
51719;DHT22;37795;53.236;5.704;2023-08-01T08:34:42;16.10;84.80
51719;DHT22;37795;53.236;5.704;2023-08-01T08:37:07;16.30;84.30
51719;DHT22;37795;53.236;5.704;2023-08-01T08:39:33;16.70;83.10
51719;DHT22;37795;53.236;5.704;2023-08-01T08:41:59;16.90;82.70
51719;DHT22;37795;53.236;5.704;2023-08-01T08:44:25;17.10;82.10
51719;DHT22;37795;53.236;5.704;2023-08-01T08:46:52;17.30;82.20
51719;DHT22;37795;53.236;5.704;2023-08-01T08:49:19;17.40;79.20
51719;DHT22;37795;53.236;5.704;2023-08-01T08:51:47;17.50;79.90
51719;DHT22;37795;53.236;5.704;2023-08-01T08:54:15;17.50;76.70
51719;DHT22;37795;53.236;5.704;2023-08-01T08:56:41;17.50;78.40
51719;DHT22;37795;53.236;5.704;2023-08-01T08:59:08;17.60;78.30
51719;DHT22;37795;53.236;5.704;2023-08-01T09:01:36;17.50;78.90
51719;DHT22;37795;53.236;5.704;2023-08-01T09:04:02;17.50;78.40
51719;DHT22;37795;53.236;5.704;2023-08-01T09:06:48;17.50;79.20
51719;DHT22;37795;53.236;5.704;2023-08-01T09:09:14;17.30;78.80
51719;DHT22;37795;53.236;5.704;2023-08-01T09:11:46;17.40;79.40
51719;DHT22;37795;53.236;5.704;2023-08-01T09:14:12;17.50;79.60
51719;DHT22;37795;53.236;5.704;2023-08-01T09:16:40;17.40;77.60
51719;DHT22;37795;53.236;5.704;2023-08-01T09:19:06;17.30;78.60
51719;DHT22;37795;53.236;5.704;2023-08-01T09:21:34;17.30;78.30
51719;DHT22;37795;53.236;5.704;2023-08-01T09:24:17;17.50;79.10
51719;DHT22;37795;53.236;5.704;2023-08-01T09:26:44;17.40;78.10
51719;DHT22;37795;53.236;5.704;2023-08-01T09:29:11;17.40;77.60
51719;DHT22;37795;53.236;5.704;2023-08-01T09:31:41;17.50;77.30
51719;DHT22;37795;53.236;5.704;2023-08-01T09:34:24;17.50;75.10
51719;DHT22;37795;53.236;5.704;2023-08-01T09:36:50;17.50;74.90
51719;DHT22;37795;53.236;5.704;2023-08-01T09:39:19;17.70;74.30
51719;DHT22;37795;53.236;5.704;2023-08-01T09:41:45;17.80;74.90
51719;DHT22;37795;53.236;5.704;2023-08-01T09:44:15;17.80;73.50
51719;DHT22;37795;53.236;5.704;2023-08-01T09:46:41;17.80;76.90
51719;DHT22;37795;53.236;5.704;2023-08-01T09:49:11;17.80;74.20
51719;DHT22;37795;53.236;5.704;2023-08-01T09:51:47;18.00;73.60
51719;DHT22;37795;53.236;5.704;2023-08-01T09:54:15;18.00;74.90
51719;DHT22;37795;53.236;5.704;2023-08-01T09:56:46;18.10;74.70
51719;DHT22;37795;53.236;5.704;2023-08-01T09:59:13;17.80;74.00
51719;DHT22;37795;53.236;5.704;2023-08-01T10:01:44;17.80;72.90
51719;DHT22;37795;53.236;5.704;2023-08-01T10:04:12;18.00;72.90
51719;DHT22;37795;53.236;5.704;2023-08-01T10:06:38;17.80;72.80
51719;DHT22;37795;53.236;5.704;2023-08-01T10:09:10;17.90;73.90
51719;DHT22;37795;53.236;5.704;2023-08-01T10:11:37;18.00;74.60
51719;DHT22;37795;53.236;5.704;2023-08-01T10:14:04;18.10;74.20
51719;DHT22;37795;53.236;5.704;2023-08-01T10:16:30;18.30;72.80
51719;DHT22;37795;53.236;5.704;2023-08-01T10:18:57;18.40;72.80
51719;DHT22;37795;53.236;5.704;2023-08-01T10:21:24;18.70;72.80
51719;DHT22;37795;53.236;5.704;2023-08-01T10:23:51;18.70;71.00
51719;DHT22;37795;53.236;5.704;2023-08-01T10:26:17;18.90;70.50
51719;DHT22;37795;53.236;5.704;2023-08-01T10:28:50;19.00;70.70
51719;DHT22;37795;53.236;5.704;2023-08-01T10:31:18;18.80;69.70
51719;DHT22;37795;53.236;5.704;2023-08-01T10:33:45;18.40;70.90
51719;DHT22;37795;53.236;5.704;2023-08-01T10:36:19;18.20;72.70
51719;DHT22;37795;53.236;5.704;2023-08-01T10:38:53;18.80;71.50
51719;DHT22;37795;53.236;5.704;2023-08-01T10:43:45;19.00;71.30
51719;DHT22;37795;53.236;5.704;2023-08-01T10:46:11;18.70;69.80
51719;DHT22;37795;53.236;5.704;2023-08-01T10:55:00;18.90;69.70
51719;DHT22;37795;53.236;5.704;2023-08-01T10:57:28;18.40;72.10
51719;DHT22;37795;53.236;5.704;2023-08-01T10:59:55;18.60;70.60
51719;DHT22;37795;53.236;5.704;2023-08-01T11:02:26;18.50;70.60
51719;DHT22;37795;53.236;5.704;2023-08-01T11:05:02;18.50;69.30
51719;DHT22;37795;53.236;5.704;2023-08-01T11:07:29;18.50;72.20
51719;DHT22;37795;53.236;5.704;2023-08-01T11:10:06;18.50;69.30
51719;DHT22;37795;53.236;5.704;2023-08-01T11:12:40;18.50;70.40
51719;DHT22;37795;53.236;5.704;2023-08-01T11:15:08;18.40;71.10
51719;DHT22;37795;53.236;5.704;2023-08-01T11:17:41;18.40;70.80
51719;DHT22;37795;53.236;5.704;2023-08-01T11:20:09;18.00;71.60
51719;DHT22;37795;53.236;5.704;2023-08-01T11:22:36;18.10;72.00
51719;DHT22;37795;53.236;5.704;2023-08-01T11:25:02;19.00;68.90
51719;DHT22;37795;53.236;5.704;2023-08-01T11:27:29;18.70;70.50
51719;DHT22;37795;53.236;5.704;2023-08-01T11:29:55;19.10;68.50
51719;DHT22;37795;53.236;5.704;2023-08-01T11:32:22;19.10;70.00
51719;DHT22;37795;53.236;5.704;2023-08-01T11:34:57;19.30;68.90
51719;DHT22;37795;53.236;5.704;2023-08-01T11:37:26;19.50;67.50
51719;DHT22;37795;53.236;5.704;2023-08-01T11:39:52;19.60;67.30
51719;DHT22;37795;53.236;5.704;2023-08-01T11:42:18;19.50;69.00
51719;DHT22;37795;53.236;5.704;2023-08-01T11:44:44;19.40;70.70
51719;DHT22;37795;53.236;5.704;2023-08-01T11:47:17;19.80;68.00
51719;DHT22;37795;53.236;5.704;2023-08-01T11:49:50;19.70;69.00
51719;DHT22;37795;53.236;5.704;2023-08-01T11:52:26;19.40;69.00
51719;DHT22;37795;53.236;5.704;2023-08-01T11:54:52;19.40;68.50
51719;DHT22;37795;53.236;5.704;2023-08-01T11:57:18;19.60;66.60
51719;DHT22;37795;53.236;5.704;2023-08-01T11:59:55;19.90;69.90
51719;DHT22;37795;53.236;5.704;2023-08-01T12:02:22;19.50;68.30
51719;DHT22;37795;53.236;5.704;2023-08-01T12:04:48;19.10;68.30
51719;DHT22;37795;53.236;5.704;2023-08-01T12:07:15;18.90;68.20
51719;DHT22;37795;53.236;5.704;2023-08-01T12:09:41;18.90;69.80
51719;DHT22;37795;53.236;5.704;2023-08-01T12:12:08;18.80;69.80
51719;DHT22;37795;53.236;5.704;2023-08-01T12:14:42;19.50;69.70
51719;DHT22;37795;53.236;5.704;2023-08-01T12:17:07;19.00;69.40
51719;DHT22;37795;53.236;5.704;2023-08-01T12:19:33;19.20;70.00
51719;DHT22;37795;53.236;5.704;2023-08-01T12:21:59;19.70;68.20
51719;DHT22;37795;53.236;5.704;2023-08-01T12:24:25;19.20;67.70
51719;DHT22;37795;53.236;5.704;2023-08-01T12:26:51;19.70;66.60
51719;DHT22;37795;53.236;5.704;2023-08-01T12:29:17;19.90;67.40
51719;DHT22;37795;53.236;5.704;2023-08-01T12:31:42;19.10;68.40
51719;DHT22;37795;53.236;5.704;2023-08-01T12:34:08;19.30;68.40
51719;DHT22;37795;53.236;5.704;2023-08-01T12:36:34;19.50;69.30
51719;DHT22;37795;53.236;5.704;2023-08-01T12:39:00;19.50;68.30
51719;DHT22;37795;53.236;5.704;2023-08-01T12:41:25;19.00;68.60
51719;DHT22;37795;53.236;5.704;2023-08-01T12:43:51;19.00;69.30
51719;DHT22;37795;53.236;5.704;2023-08-01T12:46:17;19.10;69.30
51719;DHT22;37795;53.236;5.704;2023-08-01T12:48:43;19.30;69.60
51719;DHT22;37795;53.236;5.704;2023-08-01T12:51:09;18.70;70.30
51719;DHT22;37795;53.236;5.704;2023-08-01T12:53:35;18.30;73.90
51719;DHT22;37795;53.236;5.704;2023-08-01T12:56:01;17.70;74.90
51719;DHT22;37795;53.236;5.704;2023-08-01T12:58:26;17.60;76.10
51719;DHT22;37795;53.236;5.704;2023-08-01T13:00:53;17.90;76.10
51719;DHT22;37795;53.236;5.704;2023-08-01T13:03:19;18.20;75.80
51719;DHT22;37795;53.236;5.704;2023-08-01T13:05:45;18.40;75.00
51719;DHT22;37795;53.236;5.704;2023-08-01T13:08:11;18.70;74.80
51719;DHT22;37795;53.236;5.704;2023-08-01T13:10:38;18.70;74.10
51719;DHT22;37795;53.236;5.704;2023-08-01T13:13:04;18.50;71.90
51719;DHT22;37795;53.236;5.704;2023-08-01T13:15:30;18.90;71.70
51719;DHT22;37795;53.236;5.704;2023-08-01T13:17:56;19.30;70.70
51719;DHT22;37795;53.236;5.704;2023-08-01T13:20:22;19.50;68.80
51719;DHT22;37795;53.236;5.704;2023-08-01T13:22:50;19.10;69.20
51719;DHT22;37795;53.236;5.704;2023-08-01T13:25:17;19.40;70.30
51719;DHT22;37795;53.236;5.704;2023-08-01T13:27:43;20.00;68.50
51719;DHT22;37795;53.236;5.704;2023-08-01T13:30:09;19.60;70.10
51719;DHT22;37795;53.236;5.704;2023-08-01T13:32:36;19.30;68.70
51719;DHT22;37795;53.236;5.704;2023-08-01T13:35:02;19.60;68.80
51719;DHT22;37795;53.236;5.704;2023-08-01T13:37:28;18.90;69.20
51719;DHT22;37795;53.236;5.704;2023-08-01T13:39:57;18.60;71.20
51719;DHT22;37795;53.236;5.704;2023-08-01T13:42:23;18.50;71.30
51719;DHT22;37795;53.236;5.704;2023-08-01T13:44:49;18.30;73.00
51719;DHT22;37795;53.236;5.704;2023-08-01T13:47:14;18.20;74.60
51719;DHT22;37795;53.236;5.704;2023-08-01T13:49:40;17.80;74.70
51719;DHT22;37795;53.236;5.704;2023-08-01T13:52:06;18.00;73.20
51719;DHT22;37795;53.236;5.704;2023-08-01T13:54:32;18.20;72.20
51719;DHT22;37795;53.236;5.704;2023-08-01T13:56:58;18.50;70.50
51719;DHT22;37795;53.236;5.704;2023-08-01T13:59:23;18.60;71.60
51719;DHT22;37795;53.236;5.704;2023-08-01T14:01:49;18.40;71.20
51719;DHT22;37795;53.236;5.704;2023-08-01T14:04:15;18.50;72.10
51719;DHT22;37795;53.236;5.704;2023-08-01T14:06:41;18.50;72.60
51719;DHT22;37795;53.236;5.704;2023-08-01T14:09:10;18.60;72.20
51719;DHT22;37795;53.236;5.704;2023-08-01T14:11:36;18.40;73.00
51719;DHT22;37795;53.236;5.704;2023-08-01T14:14:02;18.20;73.40
51719;DHT22;37795;53.236;5.704;2023-08-01T14:16:29;18.10;73.80
51719;DHT22;37795;53.236;5.704;2023-08-01T14:18:55;18.30;73.90
51719;DHT22;37795;53.236;5.704;2023-08-01T14:21:21;19.00;72.50
51719;DHT22;37795;53.236;5.704;2023-08-01T14:23:47;18.90;71.60
51719;DHT22;37795;53.236;5.704;2023-08-01T14:26:13;19.30;72.60
51719;DHT22;37795;53.236;5.704;2023-08-01T14:28:39;18.90;70.60
51719;DHT22;37795;53.236;5.704;2023-08-01T14:31:04;18.90;71.50
51719;DHT22;37795;53.236;5.704;2023-08-01T14:33:30;19.00;68.80
51719;DHT22;37795;53.236;5.704;2023-08-01T14:35:57;19.10;68.90
51719;DHT22;37795;53.236;5.704;2023-08-01T14:38:23;19.00;70.50
51719;DHT22;37795;53.236;5.704;2023-08-01T14:40:49;18.80;69.90
51719;DHT22;37795;53.236;5.704;2023-08-01T14:43:14;19.00;69.50
51719;DHT22;37795;53.236;5.704;2023-08-01T14:45:41;19.00;69.90
51719;DHT22;37795;53.236;5.704;2023-08-01T14:48:07;18.80;70.80
51719;DHT22;37795;53.236;5.704;2023-08-01T14:50:33;19.50;70.30
51719;DHT22;37795;53.236;5.704;2023-08-01T14:53:00;19.10;70.60
51719;DHT22;37795;53.236;5.704;2023-08-01T14:55:27;19.40;70.20
51719;DHT22;37795;53.236;5.704;2023-08-01T14:57:52;19.00;70.30
51719;DHT22;37795;53.236;5.704;2023-08-01T15:00:18;18.80;70.20
51719;DHT22;37795;53.236;5.704;2023-08-01T15:02:44;19.40;68.00
51719;DHT22;37795;53.236;5.704;2023-08-01T15:05:09;19.30;67.50
51719;DHT22;37795;53.236;5.704;2023-08-01T15:07:35;19.10;69.30
51719;DHT22;37795;53.236;5.704;2023-08-01T15:10:01;18.90;69.50
51719;DHT22;37795;53.236;5.704;2023-08-01T15:12:26;18.80;69.50
51719;DHT22;37795;53.236;5.704;2023-08-01T15:14:58;18.60;69.90
51719;DHT22;37795;53.236;5.704;2023-08-01T15:17:24;18.90;68.80
51719;DHT22;37795;53.236;5.704;2023-08-01T15:19:50;18.80;69.30
51719;DHT22;37795;53.236;5.704;2023-08-01T15:22:17;18.70;68.30
51719;DHT22;37795;53.236;5.704;2023-08-01T15:24:43;18.60;69.80
51719;DHT22;37795;53.236;5.704;2023-08-01T15:27:10;18.50;69.30
51719;DHT22;37795;53.236;5.704;2023-08-01T15:29:36;18.50;68.80
51719;DHT22;37795;53.236;5.704;2023-08-01T15:32:02;18.20;70.00
51719;DHT22;37795;53.236;5.704;2023-08-01T15:34:28;18.80;70.50
51719;DHT22;37795;53.236;5.704;2023-08-01T15:36:54;18.70;68.90
51719;DHT22;37795;53.236;5.704;2023-08-01T15:39:19;18.50;68.00
51719;DHT22;37795;53.236;5.704;2023-08-01T15:41:47;18.50;69.00